Enosburg Center, Vermont
Current Conditions -  °F | °C
As of 10:55 AM on Sunday 23 Nov 2014 (Local Time) from KFSO Reporting Station
Overcast Overcast  
Wind Chill: 38°   Ceiling: 1900
Heat Index: 41°   Visibility: 7mi
Dew Point: 38°   Wind: 5mph
Humidity: 91%   Direction: 180°S
Pressure: 30.05"   Gusts: NA
Location:  44.8764°N, 72.758°W
Report Text: KFSO 231555Z AUTO 18004KT 7SM OVC019 05/04 A3005 RMK AO2 T00500036
Loading
Personal Weather Stations






























Interactive Weather Map New forecast layout! Learn more

10-Day Weather Forecast

Advertisements
Track Severe Weather on mobile